createdAt,value
2019-05-03T00:00:10.577Z,46.89
2019-05-03T00:03:06.616Z,47.90
2019-05-03T00:05:38.120Z,49.06
2019-05-03T00:08:26.772Z,48.77
2019-05-03T00:10:54.540Z,47.47
2019-05-03T00:13:22.256Z,47.18
2019-05-03T00:15:55.870Z,46.68
2019-05-03T00:18:23.609Z,48.07
2019-05-03T00:20:52.687Z,47.42
2019-05-03T00:23:22.680Z,47.13
2019-05-03T00:25:52.204Z,47.33
2019-05-03T00:28:21.573Z,47.42
2019-05-03T00:30:49.072Z,48.80
2019-05-03T00:33:16.826Z,47.22
2019-05-03T00:36:22.287Z,48.37
2019-05-03T00:38:52.447Z,48.03
2019-05-03T00:41:21.535Z,49.03
2019-05-03T00:43:49.485Z,49.42
2019-05-03T00:46:17.260Z,49.47
2019-05-03T00:48:45.083Z,49.19
2019-05-03T00:51:12.827Z,48.17
2019-05-03T00:53:42.401Z,46.70
2019-05-03T00:56:19.342Z,52.08
2019-05-03T00:58:53.852Z,51.48
2019-05-03T01:01:22.504Z,47.71
2019-05-03T01:03:52.169Z,48.98
2019-05-03T01:06:19.892Z,47.82
2019-05-03T01:08:47.696Z,49.29
2019-05-03T01:11:15.465Z,47.75
2019-05-03T01:13:43.307Z,48.60
2019-05-03T01:16:14.264Z,47.79
2019-05-03T01:18:41.996Z,48.42
2019-05-03T01:21:11.595Z,47.42
2019-05-03T01:23:39.179Z,48.42
2019-05-03T01:26:16.168Z,49.26
2019-05-03T01:28:43.928Z,47.23
2019-05-03T01:31:12.023Z,49.33
2019-05-03T01:33:39.866Z,50.75
2019-05-03T01:36:07.610Z,50.18
2019-05-03T01:38:35.336Z,47.14
2019-05-03T01:41:03.151Z,48.22
2019-05-03T01:43:31.761Z,49.47
2019-05-03T01:45:59.748Z,49.59
2019-05-03T01:48:44.931Z,49.21
2019-05-03T01:51:32.586Z,50.00
2019-05-03T01:54:01.661Z,50.22
2019-05-03T01:56:31.566Z,49.37
2019-05-03T01:58:59.552Z,49.61
2019-05-03T02:01:42.112Z,46.68
2019-05-03T02:04:21.648Z,47.30
2019-05-03T02:06:49.395Z,48.48
2019-05-03T02:09:32.256Z,48.51
2019-05-03T02:11:53.871Z,47.58
2019-05-03T02:14:22.185Z,49.05
2019-05-03T02:16:52.196Z,47.82
2019-05-03T02:19:19.664Z,49.23
2019-05-03T02:21:47.495Z,48.86
2019-05-03T02:24:15.284Z,45.50
2019-05-03T02:26:43.003Z,49.10
2019-05-03T02:29:12.516Z,47.56
2019-05-03T02:31:43.331Z,49.06
2019-05-03T02:34:09.634Z,48.02
2019-05-03T02:36:37.350Z,50.04
2019-05-03T02:39:06.662Z,48.83
2019-05-03T02:41:34.559Z,46.90
2019-05-03T02:44:02.404Z,50.08
2019-05-03T02:47:05.573Z,47.77
2019-05-03T02:49:45.435Z,48.82
2019-05-03T02:52:48.512Z,49.37
2019-05-03T02:55:16.434Z,50.05
2019-05-03T02:57:46.558Z,48.41
2019-05-03T03:00:16.396Z,50.30
2019-05-03T03:02:45.652Z,49.14
2019-05-03T03:05:12.736Z,47.75
2019-05-03T03:07:41.517Z,47.95
2019-05-03T03:10:09.338Z,48.77
2019-05-03T03:12:37.157Z,49.96
2019-05-03T03:15:06.254Z,48.05
2019-05-03T03:17:36.400Z,48.17
2019-05-03T03:20:08.973Z,47.63
2019-05-03T03:22:39.569Z,49.22
2019-05-03T03:25:11.397Z,49.94
2019-05-03T03:27:39.609Z,49.37
2019-05-03T03:30:28.804Z,49.82
2019-05-03T03:32:57.698Z,48.19
2019-05-03T03:35:29.671Z,50.02
2019-05-03T03:37:56.092Z,49.28
2019-05-03T03:40:25.485Z,48.98
2019-05-03T03:43:01.941Z,49.07
2019-05-03T03:45:25.508Z,50.52
2019-05-03T03:47:56.066Z,50.34
2019-05-03T03:50:25.716Z,46.28
2019-05-03T03:52:52.470Z,49.95
2019-05-03T03:55:20.204Z,48.84
2019-05-03T03:57:47.918Z,47.37
2019-05-03T04:00:16.401Z,50.14
2019-05-03T04:02:45.862Z,49.16
2019-05-03T04:05:15.975Z,49.31
2019-05-03T04:07:46.183Z,46.56
2019-05-03T04:10:15.703Z,46.51
2019-05-03T04:12:45.514Z,47.69
2019-05-03T04:15:32.947Z,47.64
2019-05-03T04:18:19.861Z,50.02
2019-05-03T04:20:47.719Z,48.34
2019-05-03T04:23:16.248Z,48.67
2019-05-03T04:25:45.099Z,49.15
2019-05-03T04:28:12.985Z,47.61
2019-05-03T04:30:40.782Z,45.60
2019-05-03T04:33:08.880Z,48.91
2019-05-03T04:35:38.194Z,48.28
2019-05-03T04:38:16.029Z,50.12
2019-05-03T04:40:45.131Z,47.43
2019-05-03T04:43:11.968Z,48.90
2019-05-03T04:45:39.689Z,47.00
2019-05-03T04:48:08.063Z,50.13
2019-05-03T04:50:36.666Z,50.92
2019-05-03T04:53:05.671Z,45.17
2019-05-03T04:55:36.406Z,47.70
2019-05-03T04:58:04.807Z,51.18
2019-05-03T05:00:35.548Z,48.44
2019-05-03T05:03:02.227Z,49.62
2019-05-03T05:05:29.963Z,46.48
2019-05-03T05:08:05.841Z,49.38
2019-05-03T05:10:29.133Z,50.33
2019-05-03T05:12:56.895Z,48.60
2019-05-03T05:15:26.477Z,49.80
2019-05-03T05:18:08.925Z,47.17
2019-05-03T05:20:45.394Z,49.00
2019-05-03T05:23:14.803Z,50.22
2019-05-03T05:25:47.975Z,44.92
2019-05-03T05:28:28.247Z,47.38
2019-05-03T05:30:56.071Z,46.38
2019-05-03T05:33:25.203Z,48.17
2019-05-03T05:35:54.738Z,46.11
2019-05-03T05:38:22.597Z,46.95
2019-05-03T05:40:55.471Z,48.20
2019-05-03T05:43:25.337Z,50.44
2019-05-03T05:45:52.911Z,50.60
2019-05-03T05:48:26.463Z,49.80
2019-05-03T05:50:55.263Z,48.19
2019-05-03T05:53:24.883Z,48.00
2019-05-03T05:56:10.622Z,47.69
2019-05-03T05:58:55.412Z,46.86
2019-05-03T06:01:32.721Z,47.56
2019-05-03T06:04:00.451Z,50.28
2019-05-03T06:06:47.277Z,50.53
2019-05-03T06:09:34.444Z,51.38
2019-05-03T06:12:09.219Z,50.01
2019-05-03T06:14:41.738Z,47.63
2019-05-03T06:17:20.272Z,49.12
2019-05-03T06:19:56.509Z,53.03
2019-05-03T06:22:31.003Z,49.58
2019-05-03T06:25:06.174Z,53.52
2019-05-03T06:27:37.691Z,49.51
2019-05-03T06:30:16.587Z,48.43
2019-05-03T06:32:44.866Z,46.79
2019-05-03T06:35:12.711Z,47.55
2019-05-03T06:37:43.334Z,50.53
2019-05-03T06:40:11.059Z,49.11
2019-05-03T06:42:52.426Z,47.86
2019-05-03T06:45:15.102Z,49.57
2019-05-03T06:47:45.933Z,52.39
2019-05-03T06:50:14.352Z,50.13
2019-05-03T06:52:41.898Z,46.83
2019-05-03T06:55:10.886Z,48.21
2019-05-03T06:57:47.730Z,46.05
2019-05-03T07:00:24.745Z,45.95
2019-05-03T07:03:06.839Z,45.79
2019-05-03T07:05:54.904Z,47.12
2019-05-03T07:08:40.834Z,44.70
2019-05-03T07:11:08.646Z,46.94
2019-05-03T07:13:36.370Z,45.31
2019-05-03T07:16:04.706Z,45.89
2019-05-03T07:18:35.208Z,47.26
2019-05-03T07:21:04.999Z,45.07
2019-05-03T07:23:34.740Z,46.89
2019-05-03T07:26:02.228Z,45.30
2019-05-03T07:28:29.958Z,46.54
2019-05-03T07:30:57.682Z,45.60
2019-05-03T07:33:28.643Z,46.93
2019-05-03T07:35:56.519Z,45.20
2019-05-03T07:38:24.897Z,46.22
2019-05-03T07:40:54.828Z,46.50
2019-05-03T07:43:24.383Z,45.05
2019-05-03T07:45:51.811Z,44.63
2019-05-03T07:48:19.551Z,44.33
2019-05-03T07:50:47.585Z,44.90
2019-05-03T07:53:15.306Z,43.25
2019-05-03T07:56:08.270Z,44.37
2019-05-03T07:58:36.078Z,42.66
2019-05-03T08:01:09.835Z,43.57
2019-05-03T08:03:35.626Z,45.39
2019-05-03T08:06:04.728Z,44.02
2019-05-03T08:08:32.723Z,43.71
2019-05-03T08:11:00.441Z,43.79
2019-05-03T08:13:28.155Z,44.61
2019-05-03T08:15:55.961Z,44.33
2019-05-03T08:18:25.654Z,43.55
2019-05-03T08:20:55.417Z,43.97
2019-05-03T08:23:29.952Z,44.62
2019-05-03T08:25:55.727Z,44.40
2019-05-03T08:28:24.598Z,43.53
2019-05-03T08:31:10.474Z,43.57
2019-05-03T08:33:58.261Z,43.60
2019-05-03T08:36:27.882Z,44.06
2019-05-03T08:38:56.473Z,44.70
2019-05-03T08:41:26.171Z,43.93
2019-05-03T08:43:54.997Z,44.02
2019-05-03T08:46:25.162Z,44.72
2019-05-03T08:48:54.641Z,44.66
2019-05-03T08:51:21.891Z,44.28
2019-05-03T08:53:49.676Z,43.66
2019-05-03T08:56:17.514Z,42.97
2019-05-03T08:58:45.299Z,43.57
2019-05-03T09:01:14.804Z,43.87
2019-05-03T09:03:42.476Z,43.69
2019-05-03T09:06:10.321Z,43.79
2019-05-03T09:08:38.046Z,44.02
2019-05-03T09:11:09.250Z,43.86
2019-05-03T09:13:49.787Z,43.38
2019-05-03T09:16:17.627Z,43.66
2019-05-03T09:18:45.569Z,42.90
2019-05-03T09:21:14.771Z,43.30
2019-05-03T09:23:44.815Z,43.92
2019-05-03T09:26:12.362Z,44.23
2019-05-03T09:28:40.172Z,44.51
2019-05-03T09:31:07.930Z,44.13
2019-05-03T09:33:35.761Z,44.43
2019-05-03T09:36:05.349Z,43.19
2019-05-03T09:38:34.883Z,44.38
2019-05-03T09:41:02.560Z,43.79
2019-05-03T09:43:35.769Z,44.34
2019-05-03T09:46:02.420Z,44.33
2019-05-03T09:48:30.131Z,44.11
2019-05-03T09:50:57.891Z,44.02
2019-05-03T09:53:28.040Z,44.48
2019-05-03T09:55:56.047Z,45.23
2019-05-03T09:58:24.234Z,44.77
2019-05-03T10:00:55.506Z,44.19
2019-05-03T10:03:23.146Z,41.81
2019-05-03T10:05:50.882Z,42.51
2019-05-03T10:08:18.614Z,44.00
2019-05-03T10:11:05.571Z,40.32
2019-05-03T10:13:35.496Z,41.55
2019-05-03T10:16:02.968Z,41.58
2019-05-03T10:18:30.691Z,43.48
2019-05-03T10:20:58.426Z,43.53
2019-05-03T10:23:38.078Z,43.93
2019-05-03T10:26:06.097Z,43.54
2019-05-03T10:28:33.974Z,44.32
2019-05-03T10:31:04.948Z,44.01
2019-05-03T10:33:36.009Z,42.17
2019-05-03T10:36:05.511Z,42.33
2019-05-03T10:38:33.563Z,41.86
2019-05-03T10:41:02.479Z,42.36
2019-05-03T10:43:30.175Z,44.33
2019-05-03T10:45:57.946Z,44.14
2019-05-03T10:48:25.723Z,43.44
2019-05-03T10:50:53.510Z,44.14
2019-05-03T10:53:32.211Z,43.41
2019-05-03T10:56:23.247Z,44.17
2019-05-03T10:59:06.417Z,44.76
2019-05-03T11:02:00.469Z,44.35
2019-05-03T11:04:28.519Z,45.01
2019-05-03T11:06:56.239Z,44.32
2019-05-03T11:09:25.925Z,44.08
2019-05-03T11:11:55.335Z,42.75
2019-05-03T11:14:25.208Z,43.24
2019-05-03T11:16:55.056Z,43.23
2019-05-03T11:19:34.598Z,44.29
2019-05-03T11:21:54.723Z,43.61
2019-05-03T11:24:25.062Z,44.31
2019-05-03T11:26:55.672Z,44.03
2019-05-03T11:29:24.652Z,43.28
2019-05-03T11:32:14.943Z,44.54
2019-05-03T11:34:48.372Z,42.10
2019-05-03T11:37:50.526Z,41.43
2019-05-03T11:40:18.330Z,42.74
2019-05-03T11:42:46.418Z,44.36
2019-05-03T11:45:15.266Z,42.34
2019-05-03T11:47:45.440Z,40.79
2019-05-03T11:50:14.677Z,41.91
2019-05-03T11:52:42.086Z,42.86
2019-05-03T11:55:11.738Z,42.97
2019-05-03T11:57:39.452Z,44.21
2019-05-03T12:00:14.663Z,40.99
2019-05-03T12:03:05.016Z,43.15
2019-05-03T12:05:33.227Z,40.81
2019-05-03T12:08:00.962Z,43.25
2019-05-03T12:10:45.746Z,41.74
2019-05-03T12:13:12.439Z,43.03
2019-05-03T12:15:49.071Z,44.70
2019-05-03T12:18:17.484Z,44.98
2019-05-03T12:20:47.179Z,42.83
2019-05-03T12:23:16.580Z,43.23
2019-05-03T12:35:25.586Z,42.66
2019-05-03T12:37:55.366Z,41.33
2019-05-03T12:40:22.802Z,41.37
2019-05-03T12:42:50.538Z,42.13
2019-05-03T12:45:18.332Z,43.20
2019-05-03T12:47:46.114Z,44.23
2019-05-03T12:50:15.610Z,43.40
2019-05-03T12:52:49.842Z,42.76
2019-05-03T12:55:21.817Z,42.44
2019-05-03T12:57:45.783Z,43.59
2019-05-03T13:00:25.124Z,43.20
2019-05-03T13:02:57.036Z,45.32
2019-05-03T13:05:24.959Z,44.41
2019-05-03T13:08:10.657Z,42.84
2019-05-03T13:10:38.423Z,45.31
2019-05-03T13:13:06.135Z,42.96
2019-05-03T13:15:35.215Z,42.43
2019-05-03T13:18:08.871Z,43.12
2019-05-03T13:20:36.012Z,42.43
2019-05-03T13:23:05.468Z,42.17
2019-05-03T13:25:35.549Z,42.09
2019-05-03T13:28:05.368Z,40.55
2019-05-03T13:30:34.422Z,40.11
2019-05-03T13:33:02.143Z,40.93
2019-05-03T13:35:29.876Z,41.77
2019-05-03T13:37:57.631Z,39.42
2019-05-03T13:40:25.359Z,41.49
2019-05-03T13:42:57.170Z,43.06
2019-05-03T13:45:24.601Z,42.43
2019-05-03T13:47:52.335Z,42.40
2019-05-03T13:50:24.582Z,42.82
2019-05-03T13:52:55.805Z,42.10
2019-05-03T13:55:24.620Z,41.40
2019-05-03T13:57:54.843Z,44.02
2019-05-03T14:00:24.693Z,42.94
2019-05-03T14:02:52.386Z,40.72
2019-05-03T14:05:20.155Z,42.39
2019-05-03T14:07:47.892Z,39.58
2019-05-03T14:10:15.598Z,40.40
2019-05-03T14:12:45.365Z,43.12
2019-05-03T14:15:14.793Z,40.51
2019-05-03T14:17:42.274Z,40.44
2019-05-03T14:20:15.590Z,41.04
2019-05-03T14:22:55.337Z,40.85
2019-05-03T14:25:16.609Z,43.69
2019-05-03T14:27:45.559Z,42.23
2019-05-03T14:30:14.587Z,42.67
2019-05-03T14:32:42.474Z,42.66
2019-05-03T14:35:10.262Z,43.05
2019-05-03T14:37:38.110Z,40.15
2019-05-03T14:40:06.443Z,40.65
2019-05-03T14:42:34.142Z,39.16
2019-05-03T14:45:01.870Z,40.45
2019-05-03T14:47:29.651Z,41.80
2019-05-03T14:49:57.424Z,40.05
2019-05-03T14:52:26.117Z,42.12
2019-05-03T14:54:58.406Z,41.25
2019-05-03T14:57:38.460Z,42.18
2019-05-03T15:00:31.732Z,40.71
2019-05-03T15:03:07.927Z,40.38
2019-05-03T15:05:36.455Z,41.31
2019-05-03T15:08:05.576Z,40.99
2019-05-03T15:10:35.063Z,41.95
2019-05-03T15:13:15.912Z,39.96
2019-05-03T15:15:45.124Z,41.88
2019-05-03T15:18:14.913Z,40.44
2019-05-03T15:20:42.728Z,40.37
2019-05-03T15:23:10.486Z,41.94
2019-05-03T15:25:38.435Z,41.08
2019-05-03T15:28:06.980Z,40.54
2019-05-03T15:30:35.392Z,40.14
2019-05-03T15:33:04.919Z,41.13
2019-05-03T15:35:34.909Z,39.04
2019-05-03T15:38:02.138Z,42.96
2019-05-03T15:40:29.846Z,40.25
2019-05-03T15:43:17.136Z,41.46
2019-05-03T15:46:06.794Z,40.68
2019-05-03T15:48:38.730Z,42.28
2019-05-03T15:51:06.479Z,41.17
2019-05-03T15:53:35.320Z,40.08
2019-05-03T15:56:05.241Z,44.44
2019-05-03T15:58:32.783Z,41.06
2019-05-03T16:01:11.023Z,41.34
2019-05-03T16:03:38.882Z,39.95
2019-05-03T16:06:06.608Z,42.10
2019-05-03T16:08:34.360Z,39.73
2019-05-03T16:11:02.135Z,40.88
2019-05-03T16:13:30.087Z,40.23
2019-05-03T16:15:57.944Z,42.96
2019-05-03T16:18:25.754Z,39.16
2019-05-03T16:20:54.626Z,42.16
2019-05-03T16:23:24.774Z,41.42
2019-05-03T16:25:54.229Z,44.43
2019-05-03T16:28:29.382Z,39.62
2019-05-03T16:31:17.414Z,43.53
2019-05-03T16:33:45.714Z,41.94
2019-05-03T16:36:14.840Z,42.61
2019-05-03T16:38:44.761Z,42.20
2019-05-03T16:41:12.253Z,42.49
2019-05-03T16:43:40.051Z,43.76
2019-05-03T16:46:07.893Z,41.98
2019-05-03T16:48:35.650Z,42.17
2019-05-03T16:51:03.498Z,40.11
2019-05-03T16:53:31.290Z,41.36
2019-05-03T16:55:59.838Z,38.29
2019-05-03T16:58:45.305Z,37.72
2019-05-03T17:01:15.940Z,40.34
2019-05-03T17:03:56.615Z,39.16
2019-05-03T17:06:32.252Z,39.77
2019-05-03T17:09:25.486Z,37.82
2019-05-03T17:12:06.716Z,37.42
2019-05-03T17:14:34.519Z,37.44
2019-05-03T17:17:02.267Z,37.55
2019-05-03T17:19:29.979Z,36.90
2019-05-03T17:21:57.708Z,38.52
2019-05-03T17:24:25.433Z,36.77
2019-05-03T17:26:55.050Z,35.43
2019-05-03T17:29:24.544Z,35.98
2019-05-03T17:31:52.088Z,36.47
2019-05-03T17:34:19.823Z,35.81
2019-05-03T17:37:06.461Z,35.02
2019-05-03T17:39:50.199Z,36.24
2019-05-03T17:42:28.068Z,36.13
2019-05-03T17:44:55.927Z,36.75
2019-05-03T17:47:25.497Z,37.39
2019-05-03T17:50:18.271Z,37.84
2019-05-03T17:52:54.574Z,37.60
2019-05-03T17:55:35.277Z,37.78
2019-05-03T17:58:15.104Z,37.53
2019-05-03T18:01:00.603Z,38.40
2019-05-03T18:03:30.739Z,38.68
2019-05-03T18:06:15.011Z,37.52
2019-05-03T18:08:49.051Z,37.87
2019-05-03T18:11:19.844Z,38.65
2019-05-03T18:13:47.605Z,37.90
2019-05-03T18:16:15.620Z,38.05
2019-05-03T18:18:45.330Z,38.54
2019-05-03T18:21:15.087Z,38.36
2019-05-03T18:23:42.313Z,38.39
2019-05-03T18:26:10.058Z,38.63
2019-05-03T18:28:37.917Z,39.91
2019-05-03T18:31:08.510Z,39.46
2019-05-03T18:33:35.139Z,39.17
2019-05-03T18:36:02.926Z,38.85
2019-05-03T18:38:35.123Z,38.53
2019-05-03T18:41:04.548Z,38.94
2019-05-03T18:43:49.661Z,38.18
2019-05-03T18:46:25.598Z,37.08
2019-05-03T18:48:55.192Z,36.75
2019-05-03T18:51:25.103Z,38.16
2019-05-03T18:53:54.300Z,36.83
2019-05-03T18:56:22.234Z,38.30
2019-05-03T18:58:50.065Z,38.40
2019-05-03T19:01:17.814Z,38.22
2019-05-03T19:03:47.274Z,38.68
2019-05-03T19:06:18.909Z,37.31
2019-05-03T19:09:11.959Z,37.88
2019-05-03T19:11:59.789Z,37.78
2019-05-03T19:14:28.171Z,39.31
2019-05-03T19:17:09.499Z,39.72
2019-05-03T19:19:40.138Z,39.04
2019-05-03T19:22:08.150Z,39.10
2019-05-03T19:24:35.862Z,38.69
2019-05-03T19:27:04.954Z,39.04
2019-05-03T19:29:36.986Z,39.04
2019-05-03T19:32:07.529Z,38.83
2019-05-03T19:34:47.828Z,39.47
2019-05-03T19:37:05.305Z,40.10
2019-05-03T19:39:34.610Z,39.06
2019-05-03T19:42:02.470Z,39.50
2019-05-03T19:44:30.328Z,39.39
2019-05-03T19:46:58.092Z,40.24
2019-05-03T19:49:26.613Z,39.32
2019-05-03T19:51:54.581Z,39.33
2019-05-03T19:54:22.290Z,39.23
2019-05-03T19:56:50.012Z,39.86
2019-05-03T19:59:36.962Z,42.66
2019-05-03T20:02:15.492Z,43.98
2019-05-03T20:05:11.614Z,41.09
2019-05-03T20:08:05.196Z,41.22
2019-05-03T20:10:35.153Z,40.24
2019-05-03T20:13:06.007Z,41.03
2019-05-03T20:15:33.768Z,40.41
2019-05-03T20:18:01.510Z,40.63
2019-05-03T20:20:29.313Z,41.52
2019-05-03T20:22:59.068Z,44.52
2019-05-03T20:25:26.948Z,44.74
2019-05-03T20:27:55.929Z,43.58
2019-05-03T20:30:25.388Z,43.58
2019-05-03T20:32:55.398Z,41.29
2019-05-03T20:35:24.954Z,41.57
2019-05-03T20:37:58.550Z,40.94
2019-05-03T20:40:26.264Z,40.14
2019-05-03T20:43:04.847Z,40.64
2019-05-03T20:45:54.759Z,40.35
2019-05-03T20:48:22.684Z,39.90
2019-05-03T20:50:50.413Z,40.87
2019-05-03T20:53:19.791Z,40.93
2019-05-03T20:55:47.614Z,41.02
2019-05-03T20:58:15.369Z,40.42
2019-05-03T21:00:45.206Z,41.15
2019-05-03T21:03:12.949Z,42.21
2019-05-03T21:05:40.682Z,41.60
2019-05-03T21:08:08.455Z,41.87
2019-05-03T21:10:36.192Z,41.80
2019-05-03T21:13:05.768Z,42.02
2019-05-03T21:15:39.810Z,42.38
2019-05-03T21:18:29.804Z,42.02
2019-05-03T21:21:10.538Z,42.62
2019-05-03T21:23:36.332Z,42.37
2019-05-03T21:26:12.885Z,43.03
2019-05-03T21:28:37.956Z,41.42
2019-05-03T21:31:05.801Z,42.00
2019-05-03T21:33:35.361Z,42.41
2019-05-03T21:36:04.661Z,41.90
2019-05-03T21:38:32.627Z,42.60
2019-05-03T21:41:00.431Z,41.37
2019-05-03T21:43:28.139Z,41.29
2019-05-03T21:46:04.454Z,42.32
2019-05-03T21:49:06.826Z,43.65
2019-05-03T21:51:34.728Z,42.12
2019-05-03T21:54:02.458Z,43.15
2019-05-03T21:56:30.198Z,40.97
2019-05-03T21:58:57.979Z,41.95
2019-05-03T22:01:26.072Z,42.52
2019-05-03T22:03:54.298Z,41.79
2019-05-03T22:06:22.036Z,43.12
2019-05-03T22:08:49.768Z,42.18
2019-05-03T22:11:25.096Z,42.28
2019-05-03T22:13:51.041Z,42.61
2019-05-03T22:16:27.894Z,44.34
2019-05-03T22:18:55.619Z,44.54
2019-05-03T22:21:55.298Z,43.36
2019-05-03T22:24:37.631Z,42.31
2019-05-03T22:27:08.704Z,41.04
2019-05-03T22:29:36.452Z,43.54
2019-05-03T22:32:05.291Z,41.41
2019-05-03T22:34:34.826Z,43.86
2019-05-03T22:37:02.943Z,44.51
2019-05-03T22:39:30.742Z,45.76
2019-05-03T22:41:58.457Z,41.84
2019-05-03T22:44:26.491Z,44.87
2019-05-03T22:46:55.177Z,42.74
2019-05-03T22:49:23.113Z,43.16
2019-05-03T22:51:50.874Z,41.40
2019-05-03T22:54:18.616Z,42.29
2019-05-03T22:56:46.411Z,43.93
2019-05-03T22:59:31.236Z,42.11
2019-05-03T23:01:58.959Z,43.34
2019-05-03T23:04:26.700Z,44.77
2019-05-03T23:06:55.624Z,42.45
2019-05-03T23:09:24.899Z,45.28
2019-05-03T23:11:52.784Z,45.67
2019-05-03T23:14:22.575Z,42.12
2019-05-03T23:16:50.287Z,45.72
2019-05-03T23:19:18.006Z,43.71
2019-05-03T23:21:51.042Z,45.26
2019-05-03T23:24:18.815Z,42.87
2019-05-03T23:26:46.539Z,45.14
2019-05-03T23:29:18.691Z,44.93
2019-05-03T23:31:47.331Z,45.00
2019-05-03T23:34:15.045Z,44.64
2019-05-03T23:36:42.779Z,41.74
2019-05-03T23:39:10.771Z,43.84
2019-05-03T23:41:38.522Z,43.06
2019-05-03T23:44:06.251Z,45.96
2019-05-03T23:46:54.578Z,43.56
2019-05-03T23:49:22.400Z,44.78
2019-05-03T23:51:51.737Z,46.26
2019-05-03T23:54:19.468Z,43.53
2019-05-03T23:56:47.292Z,42.13
2019-05-03T23:59:27.501Z,44.56
